Prudhoe Bay, Alaska
Current Conditions -  °F | °C
As of 3:53 PM on Saturday 25 Oct 2014 (Local Time) from PASC Reporting Station
Overcast Overcast  
Wind Chill: -2°   Ceiling: 10000
Heat Index:   Visibility: 10mi
Dew Point:   Wind: 5mph
Humidity: 80%   Direction: 100°E
Pressure: 29.76"   Gusts: NA
Location:  70.28°N, 148.38°W
Report Text: PASC 252353Z 10004KT 10SM FEW065 BKN100 OVC120 M14/M17 A2976 RMK AO2 SLP079 T11391167 11133 21167 58013
Loading
Personal Weather Stations






























Interactive Weather Map New forecast layout! Learn more

10-Day Weather Forecast

Advertisements
Track Severe Weather on mobile